Time;durP1;ratioP1;P1;durP2;ratioP2;P2;SDS_P1;SDS_P2;PMS_P1;PMS_P2;Temp;Humidity;BMP_temperature;BMP_pressure;BME280_temperature;BME280_humidity;BME280_pressure;Samples;Min_cycle;Max_cycle;Signal;HPM_P1;HPM_P2
2023/09/15 00:02:25;;;;;;;5.13;3.33;;;13.80;99.90;;;;;;5101358;28;20198;-64
2023/09/15 00:04:51;;;;;;;4.23;3.17;;;13.70;99.90;;;;;;5096793;28;20440;-64
2023/09/15 00:07:17;;;;;;;4.13;2.90;;;13.70;99.90;;;;;;5098299;28;20429;-64
2023/09/15 00:09:43;;;;;;;6.43;3.93;;;13.60;99.90;;;;;;5098711;28;20476;-64
2023/09/15 00:12:09;;;;;;;5.40;3.30;;;13.50;99.90;;;;;;5100055;28;20475;-64
2023/09/15 00:14:35;;;;;;;5.67;3.70;;;13.40;99.90;;;;;;5098409;28;20282;-64
2023/09/15 00:17:03;;;;;;;5.20;3.67;;;13.50;99.90;;;;;;5100507;28;20505;-64
2023/09/15 00:19:29;;;;;;;4.13;3.20;;;13.40;99.90;;;;;;5096640;28;20266;-64
2023/09/15 00:21:55;;;;;;;5.07;3.60;;;13.40;99.90;;;;;;5100128;28;20474;-64
2023/09/15 00:24:21;;;;;;;3.70;3.30;;;13.40;99.90;;;;;;5101310;28;20240;-63
2023/09/15 00:26:48;;;;;;;3.83;3.43;;;13.40;99.90;;;;;;5096374;28;20423;-64
2023/09/15 00:29:14;;;;;;;4.43;3.23;;;13.40;99.90;;;;;;5098702;28;20465;-64
2023/09/15 00:31:41;;;;;;;4.27;3.57;;;13.30;99.90;;;;;;5095142;28;21104;-62
2023/09/15 00:34:06;;;;;;;4.13;3.57;;;13.30;99.90;;;;;;5099369;28;20468;-64
2023/09/15 00:36:32;;;;;;;6.63;4.00;;;13.20;99.90;;;;;;5098876;28;20498;-64
2023/09/15 00:38:58;;;;;;;6.53;4.00;;;13.20;99.90;;;;;;5099194;28;20180;-64
2023/09/15 00:41:24;;;;;;;5.37;3.60;;;13.10;99.90;;;;;;5096492;28;20203;-64
2023/09/15 00:43:50;;;;;;;6.97;3.87;;;13.10;99.90;;;;;;5097205;28;21406;-64
2023/09/15 00:46:17;;;;;;;4.63;4.00;;;13.10;99.90;;;;;;5101253;28;20688;-63
2023/09/15 00:48:45;;;;;;;3.67;3.37;;;13.00;99.90;;;;;;5094419;28;20444;-63
2023/09/15 00:51:12;;;;;;;5.30;4.57;;;12.90;99.90;;;;;;5098251;28;20433;-64
2023/09/15 00:53:39;;;;;;;5.10;3.60;;;12.80;99.90;;;;;;5094247;28;20558;-64
2023/09/15 00:56:08;;;;;;;5.93;3.90;;;13.00;99.90;;;;;;5097981;28;20422;-64
2023/09/15 00:58:36;;;;;;;7.50;4.17;;;12.90;99.90;;;;;;5098594;28;20433;-63
2023/09/15 01:01:06;;;;;;;4.17;3.40;;;13.00;99.90;;;;;;5097888;28;20417;-64
2023/09/15 01:03:33;;;;;;;4.60;3.80;;;13.00;99.90;;;;;;5098085;28;20433;-64
2023/09/15 01:05:59;;;;;;;5.77;3.70;;;12.90;99.90;;;;;;5096791;28;20428;-64
2023/09/15 01:08:24;;;;;;;6.20;3.33;;;12.90;99.90;;;;;;5096083;28;21001;-64
2023/09/15 01:10:50;;;;;;;5.93;4.03;;;12.90;99.90;;;;;;5095100;28;20630;-64
2023/09/15 01:13:16;;;;;;;3.93;3.53;;;12.90;99.90;;;;;;5097655;28;20218;-64
2023/09/15 01:15:51;;;;;;;3.90;3.50;;;12.90;99.90;;;;;;5093709;28;20944;-64
2023/09/15 01:18:31;;;;;;;4.03;3.30;;;12.90;99.90;;;;;;5097287;28;20187;-63
2023/09/15 01:21:18;;;;;;;7.57;5.10;;;13.00;99.90;;;;;;5096458;28;20415;-64
2023/09/15 01:24:21;;;;;;;4.40;4.00;;;13.00;99.90;;;;;;5094194;28;20454;-64
2023/09/15 01:27:06;;;;;;;6.57;3.63;;;13.00;99.90;;;;;;5096483;28;20429;-64
2023/09/15 01:30:05;;;;;;;5.50;3.50;;;12.80;99.90;;;;;;5094509;28;20429;-63
2023/09/15 01:32:33;;;;;;;5.60;3.63;;;12.80;99.90;;;;;;5054701;28;20469;-64
2023/09/15 01:35:06;;;;;;;4.00;3.37;;;12.80;99.90;;;;;;5099951;28;20510;-64
2023/09/15 01:37:32;;;;;;;5.63;3.60;;;12.80;99.90;;;;;;5094393;28;20929;-63
2023/09/15 01:39:59;;;;;;;4.50;3.97;;;12.80;99.90;;;;;;5096049;28;20436;-65
2023/09/15 01:42:25;;;;;;;4.13;3.00;;;12.90;99.90;;;;;;5095760;28;20179;-63
2023/09/15 01:44:51;;;;;;;4.50;3.60;;;12.90;99.90;;;;;;5094175;28;20952;-64
2023/09/15 01:47:21;;;;;;;5.03;3.70;;;12.80;99.90;;;;;;5096414;28;20505;-64
2023/09/15 01:49:50;;;;;;;4.87;3.50;;;12.90;99.90;;;;;;5093967;28;20185;-64
2023/09/15 01:52:16;;;;;;;3.70;3.40;;;12.90;99.90;;;;;;5099968;28;20978;-63
2023/09/15 01:54:42;;;;;;;5.63;4.00;;;12.90;99.90;;;;;;5091942;28;20513;-63
2023/09/15 01:57:08;;;;;;;4.30;3.20;;;12.90;99.90;;;;;;5096371;28;20428;-64
2023/09/15 01:59:34;;;;;;;7.63;4.20;;;12.80;99.90;;;;;;5093372;28;20198;-64
2023/09/15 02:02:00;;;;;;;4.50;3.70;;;12.90;99.90;;;;;;5094747;28;20180;-64
2023/09/15 02:04:25;;;;;;;4.53;3.70;;;12.90;99.90;;;;;;5095215;28;20425;-64
2023/09/15 02:06:51;;;;;;;3.60;3.30;;;12.90;99.90;;;;;;5094144;28;20211;-64
2023/09/15 02:09:18;;;;;;;4.00;3.20;;;12.80;99.90;;;;;;5096223;28;20637;-63
2023/09/15 02:11:43;;;;;;;4.33;3.60;;;12.80;99.90;;;;;;5096647;28;20184;-63
2023/09/15 02:14:09;;;;;;;3.63;3.00;;;12.70;99.90;;;;;;5096940;28;20879;-64
2023/09/15 02:16:35;;;;;;;3.57;3.23;;;12.70;99.90;;;;;;5092952;28;20188;-62
2023/09/15 02:19:01;;;;;;;4.30;3.70;;;12.60;99.90;;;;;;5095614;28;20175;-64
2023/09/15 02:21:27;;;;;;;4.50;3.30;;;12.50;99.90;;;;;;5094225;28;20478;-64
2023/09/15 02:23:52;;;;;;;4.73;3.80;;;12.40;99.90;;;;;;5094219;28;20184;-63
2023/09/15 02:26:21;;;;;;;4.67;3.40;;;12.30;99.90;;;;;;5095696;28;20786;-64
2023/09/15 02:28:46;;;;;;;4.60;3.40;;;12.30;99.90;;;;;;5093268;28;20913;-63
2023/09/15 02:31:12;;;;;;;3.67;3.30;;;12.20;99.90;;;;;;5092247;28;20442;-64
2023/09/15 02:33:38;;;;;;;6.40;3.63;;;12.10;99.90;;;;;;5091863;28;20575;-64
2023/09/15 02:36:04;;;;;;;4.70;3.73;;;12.00;99.90;;;;;;5095880;28;20179;-64
2023/09/15 02:38:29;;;;;;;4.00;3.60;;;12.00;99.90;;;;;;5092408;28;20183;-63
2023/09/15 02:40:55;;;;;;;5.60;3.30;;;12.00;99.90;;;;;;5094509;28;20846;-64
2023/09/15 02:43:21;;;;;;;4.77;3.17;;;12.00;99.90;;;;;;5095288;28;20196;-63
2023/09/15 02:45:47;;;;;;;4.03;3.23;;;12.20;99.90;;;;;;5096660;28;20252;-63
2023/09/15 02:48:13;;;;;;;5.03;3.00;;;12.20;99.90;;;;;;5096113;28;21058;-64
2023/09/15 02:50:42;;;;;;;3.40;2.97;;;12.30;99.90;;;;;;5091811;28;20426;-64
2023/09/15 02:53:09;;;;;;;5.27;3.40;;;12.30;99.90;;;;;;5091569;28;20199;-64
2023/09/15 02:55:37;;;;;;;3.60;2.87;;;12.30;99.90;;;;;;5094547;28;20499;-64
2023/09/15 02:58:04;;;;;;;5.03;3.10;;;12.20;99.90;;;;;;5099769;28;21007;-64
2023/09/15 03:00:30;;;;;;;3.03;2.67;;;12.00;99.90;;;;;;5101140;28;20461;-63
2023/09/15 03:02:56;;;;;;;4.20;3.37;;;11.90;99.90;;;;;;5098478;28;20437;-64
2023/09/15 03:05:22;;;;;;;5.70;3.30;;;11.90;99.90;;;;;;5098988;28;20433;-63
2023/09/15 03:07:47;;;;;;;3.50;3.20;;;11.90;99.90;;;;;;5095575;28;20415;-63
2023/09/15 03:10:13;;;;;;;4.07;3.47;;;12.00;99.90;;;;;;5103688;28;20256;-64
2023/09/15 03:12:39;;;;;;;6.93;3.53;;;12.10;99.90;;;;;;5095681;28;20840;-64
2023/09/15 03:15:08;;;;;;;3.67;3.13;;;12.10;99.90;;;;;;5095065;28;20961;-64
2023/09/15 03:17:35;;;;;;;4.27;3.33;;;12.10;99.90;;;;;;5096012;28;20818;-63
2023/09/15 03:20:11;;;;;;;4.43;3.23;;;12.00;99.90;;;;;;5099614;28;20414;-64
2023/09/15 03:22:36;;;;;;;4.00;2.87;;;12.00;99.90;;;;;;5095732;28;20414;-64
2023/09/15 03:25:03;;;;;;;3.70;2.70;;;12.00;99.90;;;;;;5099134;28;20428;-64
2023/09/15 03:27:29;;;;;;;4.30;3.10;;;12.10;99.90;;;;;;5096738;28;20299;-64
2023/09/15 03:29:54;;;;;;;4.03;3.10;;;12.10;99.90;;;;;;5098174;28;20461;-64
2023/09/15 03:32:20;;;;;;;3.70;3.17;;;12.20;99.90;;;;;;5097682;28;20489;-64
2023/09/15 03:34:46;;;;;;;4.40;3.20;;;12.20;99.90;;;;;;5096033;28;20949;-64
2023/09/15 03:37:11;;;;;;;3.47;2.77;;;12.20;99.90;;;;;;5099060;28;20521;-64
2023/09/15 03:39:37;;;;;;;6.00;3.50;;;12.20;99.90;;;;;;5095484;28;20180;-63
2023/09/15 03:42:03;;;;;;;4.90;3.60;;;12.30;99.90;;;;;;5102582;28;20619;-64
2023/09/15 03:44:28;;;;;;;3.47;3.17;;;12.40;99.90;;;;;;5096837;28;20180;-63
2023/09/15 03:46:54;;;;;;;4.00;3.27;;;12.30;99.90;;;;;;5097413;28;20234;-64
2023/09/15 03:49:20;;;;;;;4.33;2.80;;;12.30;99.90;;;;;;5099081;28;20191;-64
2023/09/15 03:51:46;;;;;;;4.00;3.37;;;12.30;99.90;;;;;;5095504;28;20212;-64
2023/09/15 03:54:12;;;;;;;4.07;2.93;;;12.20;99.90;;;;;;5098669;28;20208;-64
2023/09/15 03:56:38;;;;;;;4.47;3.20;;;12.10;99.90;;;;;;5093098;28;20882;-64
2023/09/15 03:59:03;;;;;;;4.37;3.10;;;12.10;99.90;;;;;;5098503;28;20180;-64
2023/09/15 04:01:30;;;;;;;3.93;2.90;;;12.10;99.90;;;;;;5095928;28;20175;-63
2023/09/15 04:03:56;;;;;;;4.00;3.00;;;12.10;99.90;;;;;;5097541;28;20280;-64
2023/09/15 04:06:22;;;;;;;3.20;2.90;;;12.10;99.90;;;;;;5096517;28;20512;-64
2023/09/15 04:08:47;;;;;;;4.33;2.40;;;12.10;99.90;;;;;;5095606;28;20471;-64
2023/09/15 04:11:13;;;;;;;4.30;3.33;;;12.20;99.90;;;;;;5098826;28;20460;-64
2023/09/15 04:13:39;;;;;;;3.33;2.80;;;12.30;99.90;;;;;;5089912;28;20265;-64
2023/09/15 04:16:05;;;;;;;5.03;3.07;;;12.40;99.90;;;;;;5098580;28;20237;-64
2023/09/15 04:18:33;;;;;;;4.57;3.00;;;12.50;99.90;;;;;;5093867;28;20421;-63
2023/09/15 04:20:59;;;;;;;4.33;3.10;;;12.50;99.90;;;;;;5097476;28;20173;-64
2023/09/15 04:23:25;;;;;;;3.40;2.80;;;12.50;99.90;;;;;;5096532;28;20480;-63
2023/09/15 04:25:51;;;;;;;4.67;3.40;;;12.40;99.90;;;;;;5099594;28;20189;-63
2023/09/15 04:28:16;;;;;;;4.10;3.70;;;12.30;99.90;;;;;;5097824;28;20446;-64
2023/09/15 04:30:42;;;;;;;3.77;3.13;;;12.30;99.90;;;;;;5089584;28;20894;-64
2023/09/15 04:33:08;;;;;;;4.47;3.30;;;12.10;99.90;;;;;;5093948;28;20199;-64
2023/09/15 04:35:33;;;;;;;4.00;3.03;;;12.00;99.90;;;;;;5094754;28;20286;-64
2023/09/15 04:37:59;;;;;;;3.77;2.97;;;12.00;99.90;;;;;;5097204;28;20255;-64
2023/09/15 04:40:25;;;;;;;4.10;2.87;;;12.00;99.90;;;;;;5095874;28;20282;-63
2023/09/15 04:42:51;;;;;;;4.77;3.50;;;11.90;99.90;;;;;;5095686;28;20184;-64
2023/09/15 04:45:16;;;;;;;3.13;2.77;;;12.00;99.90;;;;;;5097767;28;20203;-63
2023/09/15 04:47:42;;;;;;;4.10;3.17;;;11.90;99.90;;;;;;5093345;28;20234;-63
2023/09/15 04:50:08;;;;;;;3.87;3.00;;;12.00;99.90;;;;;;5093363;28;20191;-64
2023/09/15 04:52:34;;;;;;;4.03;2.80;;;12.00;99.90;;;;;;5095722;28;20301;-63
2023/09/15 04:54:59;;;;;;;4.13;3.30;;;12.00;99.90;;;;;;5094746;28;20513;-64
2023/09/15 04:57:25;;;;;;;3.10;2.80;;;12.00;99.90;;;;;;5096114;28;20183;-63
2023/09/15 04:59:53;;;;;;;4.40;3.40;;;12.00;99.90;;;;;;5098269;28;20179;-64
2023/09/15 05:02:24;;;;;;;5.40;3.27;;;12.00;99.90;;;;;;5091473;28;20642;-64
2023/09/15 05:04:52;;;;;;;6.00;3.80;;;12.00;99.90;;;;;;5091258;28;20430;-64
2023/09/15 05:07:18;;;;;;;3.30;2.87;;;11.90;99.90;;;;;;5091247;28;20431;-64
2023/09/15 05:09:45;;;;;;;3.30;2.80;;;11.90;99.90;;;;;;5093205;28;20429;-63
2023/09/15 05:12:11;;;;;;;4.97;2.83;;;12.00;99.90;;;;;;5090477;28;20493;-64
2023/09/15 05:14:37;;;;;;;7.90;2.90;;;11.90;99.90;;;;;;5099213;28;20510;-64
2023/09/15 05:17:03;;;;;;;4.40;3.00;;;11.80;99.90;;;;;;5091255;28;20928;-64
2023/09/15 05:19:29;;;;;;;4.63;2.93;;;11.70;99.90;;;;;;5092723;28;20356;-63
2023/09/15 05:21:55;;;;;;;4.27;3.23;;;11.80;99.90;;;;;;5091108;28;20423;-64
2023/09/15 05:24:20;;;;;;;3.37;2.97;;;11.70;99.90;;;;;;5096090;28;20184;-64
2023/09/15 05:26:46;;;;;;;4.53;3.27;;;11.70;99.90;;;;;;5093279;28;21171;-64
2023/09/15 05:29:12;;;;;;;4.80;3.60;;;11.70;99.90;;;;;;5097175;28;20179;-64
2023/09/15 05:31:38;;;;;;;3.20;2.90;;;11.70;99.90;;;;;;5087836;28;20203;-64
2023/09/15 05:34:03;;;;;;;4.87;2.93;;;11.70;99.90;;;;;;5096484;28;20461;-64
2023/09/15 05:36:29;;;;;;;4.70;3.13;;;11.70;99.90;;;;;;5093891;28;20187;-63
2023/09/15 05:38:55;;;;;;;3.90;3.30;;;11.70;99.90;;;;;;5095040;28;20219;-63
2023/09/15 05:41:20;;;;;;;3.53;3.20;;;11.70;99.90;;;;;;5090730;28;20205;-63
2023/09/15 05:43:46;;;;;;;3.43;3.13;;;11.70;99.90;;;;;;5093775;28;20534;-63
2023/09/15 05:46:12;;;;;;;4.17;2.83;;;11.80;99.90;;;;;;5096499;28;20288;-64
2023/09/15 05:48:38;;;;;;;5.63;3.47;;;12.00;99.90;;;;;;5094174;28;20192;-64
2023/09/15 05:51:06;;;;;;;4.40;3.13;;;12.00;99.90;;;;;;5094230;28;20434;-64
2023/09/15 05:53:32;;;;;;;5.13;3.40;;;12.10;99.90;;;;;;5089807;28;20219;-63
2023/09/15 05:55:58;;;;;;;6.67;3.10;;;12.30;99.90;;;;;;5095054;28;20430;-64
2023/09/15 05:58:24;;;;;;;3.27;2.80;;;12.40;99.90;;;;;;5094290;28;20938;-63
2023/09/15 06:00:55;;;;;;;6.47;3.10;;;12.50;99.90;;;;;;5097135;28;20433;-63
2023/09/15 06:03:25;;;;;;;3.93;3.00;;;12.60;99.90;;;;;;5098386;28;20192;-63
2023/09/15 06:05:51;;;;;;;4.10;3.20;;;12.70;99.90;;;;;;5099090;28;20911;-63
2023/09/15 06:08:21;;;;;;;6.40;3.40;;;12.90;99.90;;;;;;5094270;28;20494;-64
2023/09/15 06:10:47;;;;;;;3.63;2.50;;;13.00;99.90;;;;;;5101624;28;20453;-63
2023/09/15 06:13:14;;;;;;;6.97;3.13;;;13.20;99.90;;;;;;5103026;28;20530;-64
2023/09/15 06:15:40;;;;;;;7.00;3.03;;;13.30;99.90;;;;;;5094981;28;20421;-64
2023/09/15 06:18:05;;;;;;;3.70;2.60;;;13.40;99.90;;;;;;5093133;28;20480;-64
2023/09/15 06:20:31;;;;;;;9.07;4.00;;;13.50;99.90;;;;;;5094175;28;20438;-64
2023/09/15 06:22:57;;;;;;;4.93;2.57;;;13.60;99.90;;;;;;5091914;28;20191;-64
2023/09/15 06:25:23;;;;;;;3.63;2.83;;;13.70;99.90;;;;;;5092939;28;20196;-64
2023/09/15 06:27:49;;;;;;;4.30;2.37;;;13.90;99.90;;;;;;5101231;28;20417;-64
2023/09/15 06:30:15;;;;;;;4.83;2.97;;;14.10;99.90;;;;;;5086927;28;21155;-63
2023/09/15 06:32:41;;;;;;;5.20;2.67;;;14.30;99.90;;;;;;5090578;28;20304;-64
2023/09/15 06:35:10;;;;;;;3.70;3.00;;;14.40;99.90;;;;;;5089269;28;20513;-64
2023/09/15 06:37:36;;;;;;;4.17;2.10;;;14.60;99.90;;;;;;5087616;28;20890;-63
2023/09/15 06:40:03;;;;;;;5.33;2.93;;;14.70;99.90;;;;;;5095728;28;20429;-63
2023/09/15 06:42:28;;;;;;;4.07;3.27;;;14.80;99.90;;;;;;5095831;28;20621;-63
2023/09/15 06:44:55;;;;;;;5.77;2.43;;;14.90;99.90;;;;;;5097608;28;20428;-63
2023/09/15 06:47:21;;;;;;;4.03;2.37;;;15.00;99.90;;;;;;5088812;28;20655;-63
2023/09/15 06:49:46;;;;;;;5.93;3.30;;;15.10;99.90;;;;;;5092271;28;20451;-63
2023/09/15 06:52:12;;;;;;;5.93;2.60;;;15.10;99.90;;;;;;5093191;28;20184;-63
2023/09/15 06:54:38;;;;;;;9.67;3.20;;;15.20;99.90;;;;;;5093242;28;20184;-64
2023/09/15 06:57:04;;;;;;;4.70;2.73;;;15.20;99.90;;;;;;5093815;28;20270;-65
2023/09/15 06:59:29;;;;;;;5.67;2.93;;;15.20;99.90;;;;;;5095916;28;20184;-65
2023/09/15 07:01:55;;;;;;;4.67;3.10;;;15.30;99.90;;;;;;5093400;28;20430;-63
2023/09/15 07:04:21;;;;;;;5.40;2.63;;;15.30;99.90;;;;;;5092448;28;20188;-64
2023/09/15 07:06:46;;;;;;;3.40;2.57;;;15.30;99.90;;;;;;5095135;28;20464;-65
2023/09/15 07:09:12;;;;;;;4.07;2.30;;;15.40;99.90;;;;;;5091189;28;20671;-65
2023/09/15 07:11:38;;;;;;;3.93;2.40;;;15.50;99.90;;;;;;5091135;28;20191;-65
2023/09/15 07:14:03;;;;;;;5.37;2.50;;;15.60;99.90;;;;;;5096942;28;20207;-65
2023/09/15 07:16:29;;;;;;;4.23;2.83;;;15.70;99.90;;;;;;5096970;28;20257;-65
2023/09/15 07:18:55;;;;;;;6.13;2.70;;;15.70;99.90;;;;;;5098889;28;20187;-65
2023/09/15 07:21:20;;;;;;;4.07;3.00;;;15.80;99.90;;;;;;5094291;28;20207;-64
2023/09/15 07:23:46;;;;;;;3.43;2.80;;;15.70;99.90;;;;;;5089248;28;20842;-65
2023/09/15 07:26:12;;;;;;;4.40;2.77;;;15.80;99.90;;;;;;5088588;28;20345;-65
2023/09/15 07:28:37;;;;;;;3.20;2.90;;;15.80;99.90;;;;;;5086180;28;20181;-65
2023/09/15 07:31:08;;;;;;;5.27;2.37;;;15.90;99.90;;;;;;5093918;28;20730;-65
2023/09/15 07:33:34;;;;;;;4.20;2.33;;;16.10;99.90;;;;;;5091036;28;20725;-65
2023/09/15 07:36:01;;;;;;;7.47;2.60;;;16.30;99.90;;;;;;5090872;28;20418;-65
2023/09/15 07:38:28;;;;;;;3.50;2.43;;;16.50;99.90;;;;;;5089853;28;20591;-65
2023/09/15 07:40:54;;;;;;;3.83;2.90;;;16.70;99.90;;;;;;5092664;28;20427;-65
2023/09/15 07:43:20;;;;;;;3.10;2.07;;;16.90;99.90;;;;;;5095516;28;20431;-65
2023/09/15 07:45:45;;;;;;;4.30;2.70;;;17.10;99.90;;;;;;5090931;28;20423;-65
2023/09/15 07:48:11;;;;;;;5.90;3.20;;;17.20;99.90;;;;;;5097857;28;20205;-65
2023/09/15 07:50:37;;;;;;;5.33;2.93;;;17.40;99.90;;;;;;5094775;28;20662;-65
2023/09/15 07:53:03;;;;;;;4.60;2.33;;;17.40;99.90;;;;;;5092724;28;20212;-65
2023/09/15 07:55:29;;;;;;;5.20;2.40;;;17.50;99.90;;;;;;5094411;28;20721;-65
2023/09/15 07:57:54;;;;;;;3.80;2.27;;;17.50;99.90;;;;;;5096368;28;20272;-65
2023/09/15 08:00:20;;;;;;;3.70;2.33;;;17.60;99.90;;;;;;5096695;28;20429;-65
2023/09/15 08:02:46;;;;;;;7.97;2.60;;;17.70;99.90;;;;;;5090602;28;20226;-65
2023/09/15 08:05:11;;;;;;;4.60;2.53;;;17.70;99.90;;;;;;5097607;28;20184;-65
2023/09/15 08:07:37;;;;;;;4.77;2.77;;;17.80;99.90;;;;;;5094106;28;20180;-65
2023/09/15 08:10:04;;;;;;;3.17;2.43;;;17.90;99.90;;;;;;5097740;28;20804;-65
2023/09/15 08:12:29;;;;;;;5.73;2.80;;;18.00;99.90;;;;;;5095225;28;20916;-65
2023/09/15 08:14:56;;;;;;;2.57;2.30;;;18.10;99.90;;;;;;5096238;28;20427;-65
2023/09/15 08:17:21;;;;;;;4.07;2.40;;;18.20;99.90;;;;;;5091459;28;20264;-65
2023/09/15 08:19:47;;;;;;;4.60;2.70;;;18.30;99.90;;;;;;5095036;28;20422;-65
2023/09/15 08:22:14;;;;;;;5.67;2.30;;;18.40;99.90;;;;;;5097266;28;20545;-65
2023/09/15 08:24:40;;;;;;;6.53;2.70;;;18.30;99.90;;;;;;5094346;28;20272;-65
2023/09/15 08:27:06;;;;;;;4.90;2.23;;;18.40;99.90;;;;;;5092425;28;20490;-65
2023/09/15 08:29:31;;;;;;;5.10;2.87;;;18.40;99.90;;;;;;5093899;28;20251;-65
2023/09/15 08:31:57;;;;;;;6.40;2.47;;;18.30;99.90;;;;;;5091765;28;20315;-65
2023/09/15 08:34:23;;;;;;;4.60;2.60;;;18.20;99.90;;;;;;5095287;28;20222;-65
2023/09/15 08:36:48;;;;;;;3.13;2.13;;;18.20;99.90;;;;;;5094484;28;20185;-64
2023/09/15 08:39:14;;;;;;;4.20;3.03;;;18.20;99.90;;;;;;5097036;28;20201;-64
2023/09/15 08:41:47;;;;;;;4.30;2.50;;;18.20;99.90;;;;;;5089600;28;20231;-64
2023/09/15 08:44:16;;;;;;;3.23;2.40;;;18.20;99.90;;;;;;5093046;28;20441;-64
2023/09/15 08:46:43;;;;;;;4.10;2.87;;;18.30;99.90;;;;;;5097547;28;20450;-64
2023/09/15 08:49:09;;;;;;;5.23;3.10;;;18.30;99.90;;;;;;5097050;28;20492;-64
2023/09/15 08:51:37;;;;;;;6.00;2.90;;;18.40;99.90;;;;;;5093936;28;20908;-64
2023/09/15 08:54:03;;;;;;;2.90;2.43;;;18.40;99.90;;;;;;5093427;28;20462;-64
2023/09/15 08:56:29;;;;;;;3.23;2.90;;;18.40;99.90;;;;;;5092646;28;20422;-64
2023/09/15 08:58:56;;;;;;;5.40;3.33;;;18.40;99.90;;;;;;5095463;28;20419;-64
2023/09/15 09:01:22;;;;;;;5.03;3.30;;;18.40;99.90;;;;;;5095153;28;20426;-64
2023/09/15 09:03:48;;;;;;;5.33;2.80;;;18.50;99.90;;;;;;5094192;28;20462;-64
2023/09/15 09:06:15;;;;;;;4.10;3.00;;;18.50;99.90;;;;;;5096692;28;20260;-63
2023/09/15 09:08:44;;;;;;;3.70;2.50;;;18.70;99.90;;;;;;5093139;28;20181;-64
2023/09/15 09:11:10;;;;;;;4.77;2.57;;;18.70;99.90;;;;;;5091927;28;21027;-64
2023/09/15 09:13:37;;;;;;;5.63;2.70;;;18.80;99.90;;;;;;5093347;28;21370;-64
2023/09/15 09:16:05;;;;;;;3.97;2.50;;;18.90;99.90;;;;;;5095928;28;20931;-64
2023/09/15 09:18:32;;;;;;;2.07;1.80;;;19.00;99.90;;;;;;5089356;28;20433;-64
2023/09/15 09:20:57;;;;;;;2.90;2.50;;;19.00;99.90;;;;;;5095359;28;21150;-64
2023/09/15 09:23:24;;;;;;;4.87;2.70;;;19.10;99.90;;;;;;5088794;28;20492;-64
2023/09/15 09:25:49;;;;;;;3.83;1.87;;;19.20;99.90;;;;;;5093944;28;20181;-64
2023/09/15 09:28:16;;;;;;;3.23;2.30;;;19.30;99.90;;;;;;5094590;27;20777;-64
2023/09/15 09:30:42;;;;;;;2.80;1.77;;;19.40;99.90;;;;;;5092571;28;20229;-64
2023/09/15 09:33:12;;;;;;;3.30;1.93;;;19.60;99.90;;;;;;5095827;27;20469;-64
2023/09/15 09:35:38;;;;;;;3.60;2.17;;;19.70;99.90;;;;;;5093049;28;20177;-64
2023/09/15 09:38:04;;;;;;;2.57;2.27;;;19.80;99.90;;;;;;5090973;28;20823;-63
2023/09/15 09:40:33;;;;;;;5.30;2.00;;;19.90;99.90;;;;;;5093500;28;20426;-64
2023/09/15 09:42:59;;;;;;;3.50;3.13;;;20.00;99.90;;;;;;5092568;28;20212;-64
2023/09/15 09:45:28;;;;;;;3.53;2.60;;;20.10;99.90;;;;;;5091691;28;20516;-64
2023/09/15 09:47:55;;;;;;;3.37;2.60;;;20.20;99.90;;;;;;5093722;28;20453;-64
2023/09/15 09:50:21;;;;;;;3.63;2.90;;;20.20;99.90;;;;;;5094207;28;20430;-64
2023/09/15 09:52:48;;;;;;;4.43;2.53;;;20.40;99.90;;;;;;5092765;28;20493;-64
2023/09/15 09:55:14;;;;;;;3.20;2.27;;;20.50;99.90;;;;;;5095167;28;20782;-64
2023/09/15 09:57:40;;;;;;;3.80;2.27;;;20.70;99.90;;;;;;5092049;28;20429;-64
2023/09/15 10:00:10;;;;;;;4.47;2.87;;;20.80;99.90;;;;;;5095205;28;21313;-64
2023/09/15 10:02:37;;;;;;;2.80;2.00;;;20.90;99.90;;;;;;5092506;27;20426;-64
2023/09/15 10:05:04;;;;;;;4.17;2.30;;;20.90;99.90;;;;;;5094404;28;20505;-64
2023/09/15 10:07:30;;;;;;;6.43;2.47;;;21.00;99.90;;;;;;5091894;28;20430;-64
2023/09/15 10:09:56;;;;;;;3.43;2.70;;;21.00;99.90;;;;;;5093495;28;20492;-64
2023/09/15 10:12:23;;;;;;;2.80;2.43;;;21.10;99.90;;;;;;5088910;28;20422;-64
2023/09/15 10:14:50;;;;;;;3.83;2.63;;;21.20;99.90;;;;;;5092702;28;20419;-64
2023/09/15 10:17:18;;;;;;;3.13;2.70;;;21.20;99.90;;;;;;5094169;28;20787;-64
2023/09/15 10:19:47;;;;;;;3.83;2.83;;;21.30;99.90;;;;;;5087729;28;20457;-64
2023/09/15 10:22:17;;;;;;;2.90;2.40;;;21.40;99.90;;;;;;5094831;28;20418;-63
2023/09/15 10:24:47;;;;;;;4.63;2.90;;;21.40;99.90;;;;;;5092201;28;20442;-64
2023/09/15 10:27:14;;;;;;;4.17;2.70;;;21.40;99.90;;;;;;5086649;28;20427;-64
2023/09/15 10:29:44;;;;;;;4.50;3.10;;;21.50;99.90;;;;;;5090966;28;21218;-64
2023/09/15 10:32:15;;;;;;;3.10;2.63;;;21.50;99.90;;;;;;5089937;28;20444;-64
2023/09/15 10:34:43;;;;;;;4.73;2.67;;;21.60;99.90;;;;;;5092063;28;20482;-64
2023/09/15 10:37:10;;;;;;;8.07;3.57;;;21.50;99.90;;;;;;5089982;28;20440;-64
2023/09/15 10:39:37;;;;;;;5.53;3.50;;;21.50;99.90;;;;;;5090834;28;20445;-64
2023/09/15 10:42:15;;;;;;;4.40;2.73;;;21.60;99.90;;;;;;5089671;28;20427;-64
2023/09/15 10:44:42;;;;;;;3.07;2.43;;;21.70;99.90;;;;;;5095454;28;20971;-64
2023/09/15 10:47:18;;;;;;;3.33;2.47;;;21.80;99.90;;;;;;5093919;28;20956;-63
2023/09/15 10:49:54;;;;;;;2.87;2.63;;;21.80;99.90;;;;;;5094862;28;20505;-63
2023/09/15 10:52:35;;;;;;;3.60;2.87;;;21.90;99.90;;;;;;5093228;28;20470;-63
2023/09/15 10:55:02;;;;;;;3.83;2.50;;;22.00;99.90;;;;;;5089454;28;20454;-64
2023/09/15 10:57:28;;;;;;;5.47;3.60;;;22.00;99.90;;;;;;5092358;28;20434;-63
2023/09/15 10:59:55;;;;;;;3.27;2.80;;;22.20;99.90;;;;;;5093034;28;20513;-63
2023/09/15 11:02:21;;;;;;;4.80;2.90;;;22.20;99.90;;;;;;5093226;28;20420;-63
2023/09/15 11:04:47;;;;;;;4.00;2.50;;;22.30;99.90;;;;;;5091538;28;20431;-63
2023/09/15 11:07:16;;;;;;;4.70;3.03;;;22.20;99.90;;;;;;5093543;28;20186;-63
2023/09/15 11:09:42;;;;;;;4.33;2.33;;;22.30;99.80;;;;;;5094675;28;20438;-63
2023/09/15 11:12:08;;;;;;;2.97;2.50;;;22.40;99.90;;;;;;5093959;28;20432;-64
2023/09/15 11:14:33;;;;;;;3.90;2.40;;;22.40;99.90;;;;;;5092163;28;21163;-63
2023/09/15 11:16:59;;;;;;;6.43;2.53;;;22.40;99.90;;;;;;5094097;28;21003;-63
2023/09/15 11:19:30;;;;;;;3.67;2.63;;;22.30;99.90;;;;;;5094396;28;20739;-63
2023/09/15 11:21:56;;;;;;;2.93;2.67;;;22.40;99.90;;;;;;5096591;28;20185;-63
2023/09/15 11:24:22;;;;;;;4.07;2.63;;;22.40;99.90;;;;;;5096764;28;20429;-64
2023/09/15 11:26:52;;;;;;;4.07;2.80;;;22.50;99.60;;;;;;5089816;28;20422;-63
2023/09/15 11:29:27;;;;;;;3.30;2.70;;;22.60;99.40;;;;;;5096308;28;20413;-64
2023/09/15 11:31:54;;;;;;;4.23;2.40;;;22.70;99.90;;;;;;5095946;28;21252;-63
2023/09/15 11:34:20;;;;;;;2.40;2.20;;;22.80;98.80;;;;;;5092432;28;20530;-64
2023/09/15 11:36:47;;;;;;;4.67;2.60;;;22.60;98.60;;;;;;5094743;28;20466;-63
2023/09/15 11:39:15;;;;;;;4.90;2.40;;;22.60;98.60;;;;;;5097595;28;20453;-64
2023/09/15 11:41:53;;;;;;;2.57;2.30;;;22.60;99.90;;;;;;5090837;28;20438;-63
2023/09/15 11:44:31;;;;;;;3.60;2.30;;;22.60;99.80;;;;;;5092170;28;21380;-63
2023/09/15 11:47:01;;;;;;;4.07;2.43;;;22.70;99.60;;;;;;5095853;28;20418;-64
2023/09/15 11:49:29;;;;;;;4.13;2.63;;;22.90;99.90;;;;;;5096126;28;20510;-63
2023/09/15 11:51:56;;;;;;;3.97;2.30;;;22.90;99.40;;;;;;5095864;28;20426;-64
2023/09/15 11:54:22;;;;;;;4.77;2.60;;;22.90;99.90;;;;;;5096287;28;20541;-63
2023/09/15 11:56:48;;;;;;;4.87;2.70;;;22.90;99.20;;;;;;5094540;28;20426;-63
2023/09/15 11:59:18;;;;;;;3.17;2.50;;;22.90;99.60;;;;;;5096882;28;20768;-64
2023/09/15 12:01:45;;;;;;;2.90;2.10;;;22.90;99.00;;;;;;5093759;27;20184;-64
2023/09/15 12:04:10;;;;;;;5.83;2.30;;;22.90;99.70;;;;;;5093011;28;20422;-64
2023/09/15 12:06:36;;;;;;;3.97;2.70;;;23.00;99.70;;;;;;5094763;28;21378;-63
2023/09/15 12:09:03;;;;;;;2.80;2.40;;;22.90;99.80;;;;;;5095997;28;20325;-64
2023/09/15 12:11:29;;;;;;;4.40;2.83;;;23.00;99.90;;;;;;5095428;28;20561;-64
2023/09/15 12:13:56;;;;;;;3.63;2.20;;;23.10;99.50;;;;;;5095392;28;20466;-64
2023/09/15 12:16:27;;;;;;;4.60;2.50;;;23.10;98.80;;;;;;5096120;28;20191;-64
2023/09/15 12:18:53;;;;;;;4.57;2.40;;;23.10;98.80;;;;;;5094998;28;20426;-64
2023/09/15 12:21:28;;;;;;;4.80;2.53;;;23.20;99.90;;;;;;5095580;27;20421;-64
2023/09/15 12:23:55;;;;;;;5.07;3.10;;;23.20;99.50;;;;;;5094983;28;20433;-64
2023/09/15 12:26:25;;;;;;;3.80;2.30;;;23.30;99.10;;;;;;5095910;28;20538;-64
2023/09/15 12:28:53;;;;;;;3.93;2.37;;;23.20;98.60;;;;;;5092974;28;20434;-64
2023/09/15 12:31:20;;;;;;;5.40;2.43;;;23.20;98.10;;;;;;5100006;28;20916;-64
2023/09/15 12:33:47;;;;;;;4.40;2.60;;;23.20;99.20;;;;;;5093921;28;20995;-64
2023/09/15 12:36:13;;;;;;;4.43;2.50;;;23.20;99.20;;;;;;5096290;27;20413;-64
2023/09/15 12:38:42;;;;;;;4.83;2.17;;;23.20;99.40;;;;;;5093521;28;20445;-64
2023/09/15 12:41:08;;;;;;;3.17;2.30;;;23.20;99.20;;;;;;5099853;28;20208;-64
2023/09/15 12:43:35;;;;;;;2.50;2.00;;;23.20;99.30;;;;;;5094112;28;21232;-64
2023/09/15 12:46:01;;;;;;;4.17;2.40;;;23.20;99.60;;;;;;5094869;28;20430;-64
2023/09/15 12:48:27;;;;;;;2.80;2.00;;;23.10;99.10;;;;;;5094839;28;20440;-64